sensor_id;sensor_type;location;lat;lon;timestamp;pressure;altitude;pressure_sealevel;temperature;humidity
36192;BME280;22233;42.708;23.360;2023-05-03T00:01:09;95772.97;;;14.10;41.58
36192;BME280;22233;42.708;23.360;2023-05-03T00:03:35;95763.00;;;14.14;41.63
36192;BME280;22233;42.708;23.360;2023-05-03T00:06:09;95760.00;;;14.36;41.23
36192;BME280;22233;42.708;23.360;2023-05-03T00:08:35;95763.25;;;14.30;41.39
36192;BME280;22233;42.708;23.360;2023-05-03T00:11:00;95758.69;;;14.13;41.38
36192;BME280;22233;42.708;23.360;2023-05-03T00:13:26;95745.91;;;13.87;41.42
36192;BME280;22233;42.708;23.360;2023-05-03T00:15:51;95751.88;;;13.72;42.07
36192;BME280;22233;42.708;23.360;2023-05-03T00:18:17;95755.91;;;13.57;42.90
36192;BME280;22233;42.708;23.360;2023-05-03T00:20:42;95749.19;;;13.46;43.05
36192;BME280;22233;42.708;23.360;2023-05-03T00:23:08;95749.19;;;13.54;42.77
36192;BME280;22233;42.708;23.360;2023-05-03T00:25:33;95765.72;;;13.41;43.03
36192;BME280;22233;42.708;23.360;2023-05-03T00:27:59;95766.66;;;13.27;42.59
36192;BME280;22233;42.708;23.360;2023-05-03T00:30:24;95766.69;;;13.36;43.44
36192;BME280;22233;42.708;23.360;2023-05-03T00:32:49;95776.16;;;13.30;43.38
36192;BME280;22233;42.708;23.360;2023-05-03T00:35:15;95759.63;;;13.35;42.75
36192;BME280;22233;42.708;23.360;2023-05-03T00:37:41;95769.06;;;13.29;43.41
36192;BME280;22233;42.708;23.360;2023-05-03T00:40:07;95762.66;;;13.25;43.25
36192;BME280;22233;42.708;23.360;2023-05-03T00:42:34;95756.38;;;13.15;43.94
36192;BME280;22233;42.708;23.360;2023-05-03T00:45:01;95745.00;;;13.05;43.75
36192;BME280;22233;42.708;23.360;2023-05-03T00:47:29;95761.84;;;13.15;43.27
36192;BME280;22233;42.708;23.360;2023-05-03T00:49:55;95770.03;;;13.07;44.48
36192;BME280;22233;42.708;23.360;2023-05-03T00:52:20;95762.97;;;12.88;44.43
36192;BME280;22233;42.708;23.360;2023-05-03T00:54:46;95749.97;;;12.94;44.49
36192;BME280;22233;42.708;23.360;2023-05-03T00:57:12;95758.47;;;12.92;43.85
36192;BME280;22233;42.708;23.360;2023-05-03T00:59:38;95766.78;;;12.87;44.54
36192;BME280;22233;42.708;23.360;2023-05-03T01:02:04;95749.66;;;13.04;44.71
36192;BME280;22233;42.708;23.360;2023-05-03T01:04:30;95762.94;;;12.79;44.29
36192;BME280;22233;42.708;23.360;2023-05-03T01:15:29;95741.94;;;12.80;45.33
36192;BME280;22233;42.708;23.360;2023-05-03T01:18:06;95759.44;;;12.96;44.90
36192;BME280;22233;42.708;23.360;2023-05-03T01:20:35;95760.88;;;12.94;44.65
36192;BME280;22233;42.708;23.360;2023-05-03T01:23:04;95757.50;;;12.88;44.76
36192;BME280;22233;42.708;23.360;2023-05-03T01:25:30;95744.19;;;13.22;44.38
36192;BME280;22233;42.708;23.360;2023-05-03T01:27:55;95746.91;;;12.95;45.18
36192;BME280;22233;42.708;23.360;2023-05-03T01:30:22;95750.78;;;12.94;44.29
36192;BME280;22233;42.708;23.360;2023-05-03T01:35:33;95735.69;;;13.06;44.91
36192;BME280;22233;42.708;23.360;2023-05-03T01:38:01;95739.38;;;13.01;45.14
36192;BME280;22233;42.708;23.360;2023-05-03T01:40:28;95728.00;;;12.90;44.78
36192;BME280;22233;42.708;23.360;2023-05-03T01:42:55;95736.00;;;12.95;45.10
36192;BME280;22233;42.708;23.360;2023-05-03T01:45:21;95724.47;;;12.98;44.94
36192;BME280;22233;42.708;23.360;2023-05-03T01:47:46;95708.09;;;13.07;45.26
36192;BME280;22233;42.708;23.360;2023-05-03T01:50:12;95710.03;;;12.89;45.41
36192;BME280;22233;42.708;23.360;2023-05-03T01:52:37;95690.94;;;12.89;45.16
36192;BME280;22233;42.708;23.360;2023-05-03T01:55:03;95692.25;;;12.92;44.74
36192;BME280;22233;42.708;23.360;2023-05-03T01:57:29;95677.47;;;12.75;45.17
36192;BME280;22233;42.708;23.360;2023-05-03T01:59:54;95695.13;;;12.87;44.74
36192;BME280;22233;42.708;23.360;2023-05-03T02:02:19;95685.66;;;12.93;44.95
36192;BME280;22233;42.708;23.360;2023-05-03T02:04:45;95684.69;;;12.89;45.56
36192;BME280;22233;42.708;23.360;2023-05-03T02:07:11;95681.78;;;12.85;45.41
36192;BME280;22233;42.708;23.360;2023-05-03T02:09:36;95663.34;;;12.73;45.91
36192;BME280;22233;42.708;23.360;2023-05-03T02:12:02;95656.13;;;12.69;46.23
36192;BME280;22233;42.708;23.360;2023-05-03T02:14:27;95678.25;;;12.67;46.14
36192;BME280;22233;42.708;23.360;2023-05-03T02:16:52;95673.63;;;12.76;46.26
36192;BME280;22233;42.708;23.360;2023-05-03T02:19:20;95687.91;;;12.91;45.29
36192;BME280;22233;42.708;23.360;2023-05-03T02:21:45;95681.00;;;12.76;45.58
36192;BME280;22233;42.708;23.360;2023-05-03T02:24:10;95685.00;;;12.87;46.04
36192;BME280;22233;42.708;23.360;2023-05-03T02:26:36;95694.31;;;12.69;45.75
36192;BME280;22233;42.708;23.360;2023-05-03T02:29:02;95668.00;;;12.64;46.55
36192;BME280;22233;42.708;23.360;2023-05-03T02:31:28;95687.53;;;12.49;47.17
36192;BME280;22233;42.708;23.360;2023-05-03T02:33:53;95691.09;;;12.67;46.74
36192;BME280;22233;42.708;23.360;2023-05-03T02:36:19;95691.41;;;12.48;46.78
36192;BME280;22233;42.708;23.360;2023-05-03T02:38:46;95682.25;;;12.44;47.20
36192;BME280;22233;42.708;23.360;2023-05-03T02:41:11;95675.00;;;12.22;47.40
36192;BME280;22233;42.708;23.360;2023-05-03T02:43:36;95689.13;;;12.32;47.36
36192;BME280;22233;42.708;23.360;2023-05-03T02:46:02;95692.97;;;12.40;47.28
36192;BME280;22233;42.708;23.360;2023-05-03T02:48:28;95701.75;;;12.28;46.88
36192;BME280;22233;42.708;23.360;2023-05-03T02:50:53;95702.06;;;12.18;47.35
36192;BME280;22233;42.708;23.360;2023-05-03T02:53:19;95697.19;;;12.64;46.54
36192;BME280;22233;42.708;23.360;2023-05-03T02:55:44;95684.81;;;12.49;46.89
36192;BME280;22233;42.708;23.360;2023-05-03T02:58:11;95691.25;;;12.70;46.54
36192;BME280;22233;42.708;23.360;2023-05-03T03:00:36;95700.56;;;12.87;46.45
36192;BME280;22233;42.708;23.360;2023-05-03T03:03:01;95698.94;;;12.86;46.17
36192;BME280;22233;42.708;23.360;2023-05-03T03:05:27;95679.22;;;12.97;46.36
36192;BME280;22233;42.708;23.360;2023-05-03T03:07:53;95694.47;;;13.07;45.85
36192;BME280;22233;42.708;23.360;2023-05-03T03:10:19;95693.50;;;12.94;46.64
36192;BME280;22233;42.708;23.360;2023-05-03T03:12:44;95713.88;;;13.06;46.63
36192;BME280;22233;42.708;23.360;2023-05-03T03:15:10;95690.16;;;12.80;46.62
36192;BME280;22233;42.708;23.360;2023-05-03T03:17:35;95704.25;;;12.99;46.46
36192;BME280;22233;42.708;23.360;2023-05-03T03:20:04;95707.13;;;13.21;46.22
36192;BME280;22233;42.708;23.360;2023-05-03T03:22:30;95712.75;;;13.15;46.51
36192;BME280;22233;42.708;23.360;2023-05-03T03:24:55;95704.72;;;13.19;45.50
36192;BME280;22233;42.708;23.360;2023-05-03T03:27:21;95711.78;;;13.11;46.48
36192;BME280;22233;42.708;23.360;2023-05-03T03:29:48;95708.91;;;12.90;46.43
36192;BME280;22233;42.708;23.360;2023-05-03T03:32:13;95717.09;;;12.99;46.63
36192;BME280;22233;42.708;23.360;2023-05-03T03:34:39;95724.63;;;13.02;46.41
36192;BME280;22233;42.708;23.360;2023-05-03T03:37:05;95719.34;;;13.14;46.18
36192;BME280;22233;42.708;23.360;2023-05-03T03:39:30;95723.34;;;12.91;47.31
36192;BME280;22233;42.708;23.360;2023-05-03T03:41:56;95732.16;;;13.05;47.03
36192;BME280;22233;42.708;23.360;2023-05-03T03:44:21;95731.84;;;13.15;46.55
36192;BME280;22233;42.708;23.360;2023-05-03T03:46:47;95722.06;;;12.97;46.46
36192;BME280;22233;42.708;23.360;2023-05-03T03:49:12;95739.53;;;12.70;47.80
36192;BME280;22233;42.708;23.360;2023-05-03T03:51:37;95746.75;;;12.74;47.75
36192;BME280;22233;42.708;23.360;2023-05-03T03:54:03;95748.19;;;12.81;48.08
36192;BME280;22233;42.708;23.360;2023-05-03T03:56:29;95738.91;;;12.90;47.88
36192;BME280;22233;42.708;23.360;2023-05-03T03:58:54;95743.38;;;13.04;47.33
36192;BME280;22233;42.708;23.360;2023-05-03T04:01:20;95740.38;;;13.14;47.04
36192;BME280;22233;42.708;23.360;2023-05-03T04:03:46;95751.91;;;13.19;46.65
36192;BME280;22233;42.708;23.360;2023-05-03T04:06:11;95756.22;;;13.12;46.23
36192;BME280;22233;42.708;23.360;2023-05-03T04:08:37;95758.31;;;13.15;47.02
36192;BME280;22233;42.708;23.360;2023-05-03T04:11:02;95747.69;;;12.70;46.57
36192;BME280;22233;42.708;23.360;2023-05-03T04:13:28;95762.34;;;12.34;47.62
36192;BME280;22233;42.708;23.360;2023-05-03T04:15:54;95756.44;;;12.49;47.87
36192;BME280;22233;42.708;23.360;2023-05-03T04:18:21;95766.13;;;12.64;47.48
36192;BME280;22233;42.708;23.360;2023-05-03T04:20:47;95768.84;;;12.73;47.29
36192;BME280;22233;42.708;23.360;2023-05-03T04:23:13;95776.59;;;12.88;47.44
36192;BME280;22233;42.708;23.360;2023-05-03T04:25:38;95767.31;;;12.98;47.52
36192;BME280;22233;42.708;23.360;2023-05-03T04:28:10;95764.19;;;12.73;47.01
36192;BME280;22233;42.708;23.360;2023-05-03T04:30:36;95780.47;;;12.96;47.38
36192;BME280;22233;42.708;23.360;2023-05-03T04:33:02;95786.19;;;12.86;47.21
36192;BME280;22233;42.708;23.360;2023-05-03T04:35:28;95788.91;;;12.86;48.71
36192;BME280;22233;42.708;23.360;2023-05-03T04:37:54;95784.91;;;12.74;48.90
36192;BME280;22233;42.708;23.360;2023-05-03T04:40:19;95802.66;;;12.63;49.12
36192;BME280;22233;42.708;23.360;2023-05-03T04:42:45;95795.63;;;12.79;49.93
36192;BME280;22233;42.708;23.360;2023-05-03T04:45:10;95815.03;;;12.69;51.63
36192;BME280;22233;42.708;23.360;2023-05-03T04:47:36;95811.81;;;12.67;51.63
36192;BME280;22233;42.708;23.360;2023-05-03T04:50:01;95811.69;;;12.72;51.74
36192;BME280;22233;42.708;23.360;2023-05-03T04:52:28;95824.16;;;12.65;52.03
36192;BME280;22233;42.708;23.360;2023-05-03T04:54:53;95835.22;;;12.68;52.91
36192;BME280;22233;42.708;23.360;2023-05-03T04:57:19;95820.75;;;12.59;52.62
36192;BME280;22233;42.708;23.360;2023-05-03T04:59:44;95839.44;;;12.43;53.73
36192;BME280;22233;42.708;23.360;2023-05-03T05:02:10;95848.41;;;12.35;55.05
36192;BME280;22233;42.708;23.360;2023-05-03T05:04:35;95847.22;;;12.27;54.03
36192;BME280;22233;42.708;23.360;2023-05-03T05:07:01;95850.50;;;12.38;54.79
36192;BME280;22233;42.708;23.360;2023-05-03T05:09:27;95862.59;;;12.54;54.79
36192;BME280;22233;42.708;23.360;2023-05-03T05:11:54;95850.75;;;11.96;56.86
36192;BME280;22233;42.708;23.360;2023-05-03T05:14:20;95861.00;;;12.22;56.93
36192;BME280;22233;42.708;23.360;2023-05-03T05:16:45;95872.13;;;12.34;57.16
36192;BME280;22233;42.708;23.360;2023-05-03T05:19:11;95861.19;;;12.03;58.15
36192;BME280;22233;42.708;23.360;2023-05-03T05:21:37;95852.50;;;11.92;58.06
36192;BME280;22233;42.708;23.360;2023-05-03T05:24:03;95855.25;;;11.78;59.14
36192;BME280;22233;42.708;23.360;2023-05-03T05:26:28;95848.81;;;12.19;59.17
36192;BME280;22233;42.708;23.360;2023-05-03T05:28:54;95867.34;;;12.40;59.31
36192;BME280;22233;42.708;23.360;2023-05-03T05:31:20;95855.38;;;12.18;58.90
36192;BME280;22233;42.708;23.360;2023-05-03T05:33:46;95865.91;;;12.11;60.02
36192;BME280;22233;42.708;23.360;2023-05-03T05:36:11;95832.03;;;11.81;60.42
36192;BME280;22233;42.708;23.360;2023-05-03T05:38:37;95849.97;;;11.96;59.74
36192;BME280;22233;42.708;23.360;2023-05-03T05:41:02;95861.06;;;11.86;59.41
36192;BME280;22233;42.708;23.360;2023-05-03T05:43:27;95853.91;;;11.90;59.78
36192;BME280;22233;42.708;23.360;2023-05-03T05:45:53;95852.78;;;11.91;58.46
36192;BME280;22233;42.708;23.360;2023-05-03T05:48:18;95854.19;;;11.88;57.81
36192;BME280;22233;42.708;23.360;2023-05-03T05:50:44;95857.81;;;11.97;57.91
36192;BME280;22233;42.708;23.360;2023-05-03T05:53:10;95843.19;;;12.16;56.93
36192;BME280;22233;42.708;23.360;2023-05-03T05:55:38;95844.44;;;12.10;56.42
36192;BME280;22233;42.708;23.360;2023-05-03T05:58:03;95841.06;;;12.13;55.70
36192;BME280;22233;42.708;23.360;2023-05-03T06:00:29;95848.38;;;12.26;55.50
36192;BME280;22233;42.708;23.360;2023-05-03T06:02:55;95842.19;;;12.12;55.71
36192;BME280;22233;42.708;23.360;2023-05-03T06:05:21;95853.59;;;12.14;56.01
36192;BME280;22233;42.708;23.360;2023-05-03T06:07:47;95839.41;;;12.26;55.38
36192;BME280;22233;42.708;23.360;2023-05-03T06:10:12;95856.88;;;12.33;56.34
36192;BME280;22233;42.708;23.360;2023-05-03T06:12:38;95849.88;;;12.10;56.95
36192;BME280;22233;42.708;23.360;2023-05-03T06:15:04;95844.94;;;12.12;56.12
36192;BME280;22233;42.708;23.360;2023-05-03T06:17:30;95847.00;;;12.15;56.86
36192;BME280;22233;42.708;23.360;2023-05-03T06:19:56;95847.88;;;12.24;57.24
36192;BME280;22233;42.708;23.360;2023-05-03T06:22:22;95852.16;;;12.16;56.51
36192;BME280;22233;42.708;23.360;2023-05-03T06:24:47;95847.88;;;12.24;56.09
36192;BME280;22233;42.708;23.360;2023-05-03T06:27:13;95852.94;;;12.17;57.43
36192;BME280;22233;42.708;23.360;2023-05-03T06:29:38;95845.81;;;12.30;56.85
36192;BME280;22233;42.708;23.360;2023-05-03T06:32:04;95854.72;;;12.53;56.63
36192;BME280;22233;42.708;23.360;2023-05-03T06:34:29;95860.94;;;12.45;57.02
36192;BME280;22233;42.708;23.360;2023-05-03T06:36:54;95844.47;;;12.50;56.24
36192;BME280;22233;42.708;23.360;2023-05-03T06:39:20;95827.00;;;12.59;56.08
36192;BME280;22233;42.708;23.360;2023-05-03T06:41:45;95831.34;;;12.52;55.92
36192;BME280;22233;42.708;23.360;2023-05-03T06:44:11;95841.19;;;12.79;55.28
36192;BME280;22233;42.708;23.360;2023-05-03T06:46:36;95839.19;;;13.02;55.77
36192;BME280;22233;42.708;23.360;2023-05-03T06:49:02;95835.34;;;13.21;55.19
36192;BME280;22233;42.708;23.360;2023-05-03T06:51:28;95817.53;;;13.23;54.30
36192;BME280;22233;42.708;23.360;2023-05-03T06:53:55;95815.59;;;13.24;53.88
36192;BME280;22233;42.708;23.360;2023-05-03T06:56:22;95810.28;;;12.92;54.86
36192;BME280;22233;42.708;23.360;2023-05-03T06:58:48;95797.56;;;12.79;55.48
36192;BME280;22233;42.708;23.360;2023-05-03T07:01:14;95804.41;;;12.59;55.02
36192;BME280;22233;42.708;23.360;2023-05-03T07:03:40;95801.63;;;12.90;55.13
36192;BME280;22233;42.708;23.360;2023-05-03T07:06:05;95806.41;;;12.85;54.87
36192;BME280;22233;42.708;23.360;2023-05-03T07:08:31;95797.28;;;12.89;54.94
36192;BME280;22233;42.708;23.360;2023-05-03T07:10:56;95812.00;;;12.79;55.38
36192;BME280;22233;42.708;23.360;2023-05-03T07:13:22;95799.63;;;12.73;54.96
36192;BME280;22233;42.708;23.360;2023-05-03T07:15:47;95811.06;;;13.02;54.81
36192;BME280;22233;42.708;23.360;2023-05-03T07:18:13;95813.44;;;12.86;55.06
36192;BME280;22233;42.708;23.360;2023-05-03T07:20:38;95828.22;;;12.85;55.09
36192;BME280;22233;42.708;23.360;2023-05-03T07:23:04;95805.44;;;12.81;55.03
36192;BME280;22233;42.708;23.360;2023-05-03T07:25:31;95813.63;;;12.81;55.63
36192;BME280;22233;42.708;23.360;2023-05-03T07:27:57;95809.25;;;12.71;56.05
36192;BME280;22233;42.708;23.360;2023-05-03T07:30:22;95797.59;;;12.88;56.03
36192;BME280;22233;42.708;23.360;2023-05-03T07:32:48;95805.56;;;12.67;55.81
36192;BME280;22233;42.708;23.360;2023-05-03T07:35:14;95780.38;;;12.61;55.17
36192;BME280;22233;42.708;23.360;2023-05-03T07:37:41;95815.69;;;12.84;55.94
36192;BME280;22233;42.708;23.360;2023-05-03T07:40:07;95823.25;;;12.95;55.57
36192;BME280;22233;42.708;23.360;2023-05-03T07:42:34;95824.41;;;13.03;55.61
36192;BME280;22233;42.708;23.360;2023-05-03T07:44:59;95818.09;;;12.68;56.64
36192;BME280;22233;42.708;23.360;2023-05-03T07:47:25;95809.19;;;13.11;55.91
36192;BME280;22233;42.708;23.360;2023-05-03T07:49:52;95794.56;;;13.15;55.68
36192;BME280;22233;42.708;23.360;2023-05-03T07:52:17;95797.34;;;13.33;55.88
36192;BME280;22233;42.708;23.360;2023-05-03T07:54:43;95790.13;;;13.37;55.61
36192;BME280;22233;42.708;23.360;2023-05-03T07:57:12;95793.00;;;13.49;55.26
36192;BME280;22233;42.708;23.360;2023-05-03T07:59:37;95809.53;;;13.35;55.13
36192;BME280;22233;42.708;23.360;2023-05-03T08:02:03;95825.72;;;13.23;55.82
36192;BME280;22233;42.708;23.360;2023-05-03T08:04:28;95813.34;;;13.17;55.96
36192;BME280;22233;42.708;23.360;2023-05-03T08:06:54;95821.53;;;13.26;56.70
36192;BME280;22233;42.708;23.360;2023-05-03T08:09:19;95830.00;;;12.89;56.91
36192;BME280;22233;42.708;23.360;2023-05-03T08:11:45;95834.69;;;13.06;57.01
36192;BME280;22233;42.708;23.360;2023-05-03T08:14:11;95801.47;;;13.04;56.02
36192;BME280;22233;42.708;23.360;2023-05-03T08:16:36;95800.69;;;13.30;55.88
36192;BME280;22233;42.708;23.360;2023-05-03T08:19:02;95808.41;;;13.45;56.47
36192;BME280;22233;42.708;23.360;2023-05-03T08:21:28;95824.47;;;13.38;56.30
36192;BME280;22233;42.708;23.360;2023-05-03T08:23:54;95834.91;;;13.62;55.84
36192;BME280;22233;42.708;23.360;2023-05-03T08:26:20;95828.50;;;13.67;55.53
36192;BME280;22233;42.708;23.360;2023-05-03T08:28:46;95816.75;;;13.75;55.63
36192;BME280;22233;42.708;23.360;2023-05-03T08:31:12;95806.44;;;13.89;55.58
36192;BME280;22233;42.708;23.360;2023-05-03T08:33:37;95814.16;;;13.87;55.19
36192;BME280;22233;42.708;23.360;2023-05-03T08:36:03;95814.44;;;14.12;54.64
36192;BME280;22233;42.708;23.360;2023-05-03T08:38:28;95828.31;;;14.45;53.98
36192;BME280;22233;42.708;23.360;2023-05-03T08:40:55;95809.72;;;14.68;53.16
36192;BME280;22233;42.708;23.360;2023-05-03T08:43:22;95817.91;;;14.77;52.96
36192;BME280;22233;42.708;23.360;2023-05-03T08:45:51;95820.44;;;15.12;52.12
36192;BME280;22233;42.708;23.360;2023-05-03T08:48:17;95802.78;;;15.01;52.79
36192;BME280;22233;42.708;23.360;2023-05-03T08:50:43;95787.78;;;15.07;52.59
36192;BME280;22233;42.708;23.360;2023-05-03T08:53:09;95805.56;;;15.22;51.54
36192;BME280;22233;42.708;23.360;2023-05-03T08:55:36;95816.66;;;15.46;52.49
36192;BME280;22233;42.708;23.360;2023-05-03T08:58:05;95817.53;;;15.80;51.12
36192;BME280;22233;42.708;23.360;2023-05-03T09:00:34;95827.13;;;15.86;51.01
36192;BME280;22233;42.708;23.360;2023-05-03T09:03:00;95817.97;;;16.15;50.57
36192;BME280;22233;42.708;23.360;2023-05-03T09:05:33;95822.63;;;16.03;50.53
36192;BME280;22233;42.708;23.360;2023-05-03T09:08:04;95821.50;;;16.04;49.89
36192;BME280;22233;42.708;23.360;2023-05-03T09:10:31;95819.53;;;16.04;50.36
36192;BME280;22233;42.708;23.360;2023-05-03T09:12:58;95825.34;;;16.36;50.20
36192;BME280;22233;42.708;23.360;2023-05-03T09:15:25;95808.38;;;16.22;50.47
36192;BME280;22233;42.708;23.360;2023-05-03T09:18:19;95805.28;;;16.81;49.24
36192;BME280;22233;42.708;23.360;2023-05-03T09:20:46;95794.41;;;16.85;48.86
36192;BME280;22233;42.708;23.360;2023-05-03T09:25:53;95793.22;;;17.35;47.48
36192;BME280;22233;42.708;23.360;2023-05-03T09:28:19;95792.34;;;17.19;47.82
36192;BME280;22233;42.708;23.360;2023-05-03T09:30:46;95783.97;;;17.55;47.48
36192;BME280;22233;42.708;23.360;2023-05-03T09:33:13;95790.13;;;17.36;47.73
36192;BME280;22233;42.708;23.360;2023-05-03T09:35:57;95775.97;;;17.63;47.54
36192;BME280;22233;42.708;23.360;2023-05-03T09:38:33;95773.34;;;17.54;48.06
36192;BME280;22233;42.708;23.360;2023-05-03T09:41:00;95762.16;;;17.75;47.14
36192;BME280;22233;42.708;23.360;2023-05-03T09:43:26;95743.59;;;17.84;47.73
36192;BME280;22233;42.708;23.360;2023-05-03T09:45:52;95756.81;;;17.94;47.08
36192;BME280;22233;42.708;23.360;2023-05-03T09:48:31;95744.97;;;17.50;47.07
36192;BME280;22233;42.708;23.360;2023-05-03T09:50:56;95742.44;;;17.85;46.69
36192;BME280;22233;42.708;23.360;2023-05-03T09:53:22;95742.91;;;17.87;46.91
36192;BME280;22233;42.708;23.360;2023-05-03T09:55:48;95751.25;;;18.07;46.29
36192;BME280;22233;42.708;23.360;2023-05-03T09:58:17;95740.59;;;17.61;46.48
36192;BME280;22233;42.708;23.360;2023-05-03T10:00:43;95735.78;;;17.86;47.46
36192;BME280;22233;42.708;23.360;2023-05-03T10:03:12;95713.38;;;18.00;47.00
36192;BME280;22233;42.708;23.360;2023-05-03T10:05:45;95734.03;;;17.94;47.02
36192;BME280;22233;42.708;23.360;2023-05-03T10:11:02;95723.91;;;18.93;46.35
36192;BME280;22233;42.708;23.360;2023-05-03T10:13:28;95729.06;;;19.14;45.44
36192;BME280;22233;42.708;23.360;2023-05-03T10:16:04;95722.16;;;19.05;45.37
36192;BME280;22233;42.708;23.360;2023-05-03T10:18:31;95728.88;;;18.72;45.28
36192;BME280;22233;42.708;23.360;2023-05-03T10:21:10;95730.22;;;18.62;45.52
36192;BME280;22233;42.708;23.360;2023-05-03T10:24:09;95724.78;;;19.17;44.15
36192;BME280;22233;42.708;23.360;2023-05-03T10:26:39;95704.44;;;19.41;44.29
36192;BME280;22233;42.708;23.360;2023-05-03T10:29:04;95713.28;;;19.31;44.61
36192;BME280;22233;42.708;23.360;2023-05-03T10:31:44;95690.69;;;19.22;45.11
36192;BME280;22233;42.708;23.360;2023-05-03T10:34:21;95707.28;;;19.45;44.47
36192;BME280;22233;42.708;23.360;2023-05-03T10:36:47;95688.22;;;19.36;44.32
36192;BME280;22233;42.708;23.360;2023-05-03T10:39:20;95685.94;;;19.61;44.21
36192;BME280;22233;42.708;23.360;2023-05-03T10:42:00;95682.03;;;19.62;43.96
36192;BME280;22233;42.708;23.360;2023-05-03T10:47:14;95688.84;;;19.49;44.29
36192;BME280;22233;42.708;23.360;2023-05-03T10:49:40;95689.00;;;19.36;44.47
36192;BME280;22233;42.708;23.360;2023-05-03T10:54:59;95685.38;;;19.13;45.42
36192;BME280;22233;42.708;23.360;2023-05-03T10:57:30;95679.91;;;18.97;45.23
36192;BME280;22233;42.708;23.360;2023-05-03T10:59:56;95695.44;;;18.70;46.31
36192;BME280;22233;42.708;23.360;2023-05-03T11:02:27;95704.78;;;19.01;45.64
36192;BME280;22233;42.708;23.360;2023-05-03T11:04:58;95682.75;;;19.01;45.05
36192;BME280;22233;42.708;23.360;2023-05-03T11:07:28;95679.03;;;18.93;45.49
36192;BME280;22233;42.708;23.360;2023-05-03T11:09:54;95690.53;;;18.79;46.40
36192;BME280;22233;42.708;23.360;2023-05-03T11:12:20;95689.06;;;19.01;46.08
36192;BME280;22233;42.708;23.360;2023-05-03T11:14:45;95683.91;;;19.19;46.03
36192;BME280;22233;42.708;23.360;2023-05-03T11:17:11;95674.28;;;19.48;45.90
36192;BME280;22233;42.708;23.360;2023-05-03T11:19:37;95673.50;;;19.48;45.82
36192;BME280;22233;42.708;23.360;2023-05-03T11:22:04;95679.09;;;19.32;45.56
36192;BME280;22233;42.708;23.360;2023-05-03T11:24:35;95675.59;;;19.54;45.81
36192;BME280;22233;42.708;23.360;2023-05-03T11:27:01;95678.09;;;19.63;45.09
36192;BME280;22233;42.708;23.360;2023-05-03T11:29:27;95658.41;;;19.42;45.11
36192;BME280;22233;42.708;23.360;2023-05-03T11:31:52;95664.13;;;19.52;45.48
36192;BME280;22233;42.708;23.360;2023-05-03T11:34:18;95658.06;;;19.24;45.75
36192;BME280;22233;42.708;23.360;2023-05-03T11:36:43;95654.56;;;19.46;45.24
36192;BME280;22233;42.708;23.360;2023-05-03T11:39:13;95674.28;;;19.48;46.21
36192;BME280;22233;42.708;23.360;2023-05-03T11:41:40;95642.53;;;19.35;46.39
36192;BME280;22233;42.708;23.360;2023-05-03T11:44:06;95664.13;;;19.52;45.97
36192;BME280;22233;42.708;23.360;2023-05-03T11:46:35;95674.00;;;19.73;45.84
36192;BME280;22233;42.708;23.360;2023-05-03T11:49:01;95661.06;;;19.58;46.52
36192;BME280;22233;42.708;23.360;2023-05-03T11:51:27;95647.16;;;19.70;46.01
36192;BME280;22233;42.708;23.360;2023-05-03T11:53:54;95650.34;;;19.52;45.73
36192;BME280;22233;42.708;23.360;2023-05-03T11:56:20;95649.78;;;19.43;46.11
36192;BME280;22233;42.708;23.360;2023-05-03T11:58:52;95642.88;;;19.53;45.86
36192;BME280;22233;42.708;23.360;2023-05-03T12:01:19;95664.41;;;19.67;45.90
36192;BME280;22233;42.708;23.360;2023-05-03T12:03:46;95644.91;;;19.56;45.78
36192;BME280;22233;42.708;23.360;2023-05-03T12:06:14;95641.09;;;19.84;45.44
36192;BME280;22233;42.708;23.360;2023-05-03T12:08:40;95648.88;;;20.01;44.87
36192;BME280;22233;42.708;23.360;2023-05-03T12:11:06;95656.91;;;20.10;44.85
36192;BME280;22233;42.708;23.360;2023-05-03T12:13:34;95645.22;;;20.17;45.11
36192;BME280;22233;42.708;23.360;2023-05-03T12:16:01;95634.06;;;20.09;45.48
36192;BME280;22233;42.708;23.360;2023-05-03T12:18:44;95642.81;;;19.92;45.88
36192;BME280;22233;42.708;23.360;2023-05-03T12:21:10;95642.72;;;19.65;46.48
36192;BME280;22233;42.708;23.360;2023-05-03T12:23:36;95647.34;;;19.19;46.66
36192;BME280;22233;42.708;23.360;2023-05-03T12:26:02;95637.34;;;19.10;46.88
36192;BME280;22233;42.708;23.360;2023-05-03T12:28:27;95630.50;;;18.85;47.52
36192;BME280;22233;42.708;23.360;2023-05-03T12:30:53;95653.41;;;18.73;48.21
36192;BME280;22233;42.708;23.360;2023-05-03T12:33:18;95630.47;;;18.30;48.57
36192;BME280;22233;42.708;23.360;2023-05-03T12:35:45;95652.41;;;18.62;48.26
36192;BME280;22233;42.708;23.360;2023-05-03T12:38:11;95640.34;;;18.50;48.89
36192;BME280;22233;42.708;23.360;2023-05-03T12:40:37;95634.53;;;18.36;49.57
36192;BME280;22233;42.708;23.360;2023-05-03T12:43:03;95628.06;;;17.81;50.01
36192;BME280;22233;42.708;23.360;2023-05-03T12:45:28;95621.50;;;17.69;51.27
36192;BME280;22233;42.708;23.360;2023-05-03T12:47:56;95626.22;;;17.69;50.66
36192;BME280;22233;42.708;23.360;2023-05-03T12:50:22;95630.00;;;17.80;51.63
36192;BME280;22233;42.708;23.360;2023-05-03T12:52:47;95627.69;;;17.66;51.18
36192;BME280;22233;42.708;23.360;2023-05-03T12:55:13;95621.75;;;17.64;50.98
36192;BME280;22233;42.708;23.360;2023-05-03T12:57:39;95621.69;;;17.32;51.75
36192;BME280;22233;42.708;23.360;2023-05-03T13:00:06;95615.19;;;17.09;53.11
36192;BME280;22233;42.708;23.360;2023-05-03T13:02:31;95612.69;;;17.04;54.13
36192;BME280;22233;42.708;23.360;2023-05-03T13:04:57;95614.59;;;17.15;54.65
36192;BME280;22233;42.708;23.360;2023-05-03T13:07:24;95612.41;;;16.93;56.05
36192;BME280;22233;42.708;23.360;2023-05-03T13:09:56;95623.78;;;17.07;56.07